McLain, Oklahoma
Current Conditions -  °F | °C
As of 11:53 PM on Tuesday 25 Nov 2014 (Local Time) from KMKO Reporting Station
Clear Clear  
Wind Chill: 29°   Ceiling: Unl
Heat Index: 35°   Visibility: 10mi
Dew Point: 26°   Wind: 7mph
Humidity: 70%   Direction: 170°S
Pressure: 30.09"   Gusts: NA
Location:  35.6818°N, 95.3578°W
Report Text: KMKO 260553Z AUTO 17006KT 10SM CLR 02/M03 A3009 RMK AO2 SLP191 T00171033 10056 20017 401061022 58017
Loading
Personal Weather Stations






























Interactive Weather Map New forecast layout! Learn more

10-Day Weather Forecast

Advertisements
Track Severe Weather on mobile